Pau Branco, Brazil

2:46 PM -03 on March 29, 2017 (GMT -0300)
Petrolina | | Change Station

Elev 1230 ft 9.35 °S, 40.55 °W | Updated 46 minutes ago

Mostly Cloudy
Mostly Cloudy
99 °F
Feels Like 101 °F
N
8
Wind Variable Wind from South

Today
High -- | Low -- °F
--% Chance of Precip.
Yesterday
High -- | Low -- °F
Precip. -- in
Pressure 29.83 in
Visibility 6.2 miles
Clouds Scattered Clouds 4000 ft
Heat Index 101 °F
Dew Point 64 °F
Humidity 32%
Rainfall 0.00 in
Snow Depth Not available.
5:48 AM 5:50 PM
Waxing Crescent, 4% visible
METAR SBPL 291700Z 18007KT 9999 SCT040 37/18 Q1010
Pressure 29.83 in
Visibility 6.2 miles
Clouds Scattered Clouds 4000 ft
Heat Index 101 °F
Dew Point 64 °F
Humidity 32%
Rainfall 0.00 in
Snow Depth Not available.
5:48 AM 5:50 PM
Waxing Crescent, 4% visible
METAR SBPL 291700Z 18007KT 9999 SCT040 37/18 Q1010

Get Severe Weather Alerts

Thanks for signing up!

Be on the lookout for a verification email in your inbox.

You'll start receiving the daily forecast at 8 AM.

×

10-Day Weather Forecast

No radar image for this location.
×

Almanac

Astronomy

Mar. 29, 2017 Rise Set
Actual Time
Civil Twilight
Nautical Twilight
Astronomical Twilight
Moon
Length of Visible Light
Length of Day
Tomorrow will be .
, % of the Moon is Illuminated

Today's Extremes

Country Highs Country Lows

Community

WunderPhotos

Upload Photos

1,962,540 photos uploaded!

WunderBlog® & News

Nearby

Air Quality

  Air Quality AQ Index Pollutant
Not available.

Snow Depth

Station Depth Elevation

Earthquake Activity

City Distance Mag. Time & Date
Minimum magnitude displayed is 2.5.

Earthquake Activity

City Distance Mag. Time & Date
Minimum magnitude displayed is 2.5.

Coastal Water Temperatures

Place Temperature

Stations

Nearby Weather Stations

Station Location Temp. Windchill Dew Point Humidity Wind Precip. Elev Updated Type